You are listening to:
KCAE Gnd/Twr/App - Columbia, South Carolina, United States

KCAE 070256Z 00000KT 10SM CLR 16/13 A3008 RMK AO2 SLP183 T01560133 51015

If stream doesn't start automatically press the play button
If stream stops then reload player then press play